createdAt,value
2018-05-07T00:00:58.506Z,20.41
2018-05-07T00:01:58.315Z,20.41
2018-05-07T00:02:58.404Z,20.41
2018-05-07T00:03:58.559Z,20.4
2018-05-07T00:04:58.304Z,20.41
2018-05-07T00:05:59.365Z,20.41
2018-05-07T00:06:58.253Z,20.41
2018-05-07T00:07:58.572Z,20.41
2018-05-07T00:08:58.882Z,20.4
2018-05-07T00:09:58.643Z,20.41
2018-05-07T00:10:58.574Z,20.41
2018-05-07T00:11:58.622Z,20.4
2018-05-07T00:12:58.458Z,20.4
2018-05-07T00:13:58.329Z,20.39
2018-05-07T00:14:58.302Z,20.4
2018-05-07T00:15:58.325Z,20.39
2018-05-07T00:16:58.315Z,20.39
2018-05-07T00:17:58.560Z,20.39
2018-05-07T00:18:58.404Z,20.39
2018-05-07T00:19:58.402Z,20.39
2018-05-07T00:20:58.362Z,20.39
2018-05-07T00:21:58.411Z,20.39
2018-05-07T00:22:58.474Z,20.4
2018-05-07T00:23:58.358Z,20.39
2018-05-07T00:24:58.420Z,20.39
2018-05-07T00:25:58.359Z,20.39
2018-05-07T00:26:58.331Z,20.39
2018-05-07T00:27:58.488Z,20.38
2018-05-07T00:28:58.549Z,20.38
2018-05-07T00:29:58.431Z,20.38
2018-05-07T00:30:58.556Z,20.38
2018-05-07T00:31:58.419Z,20.39
2018-05-07T00:32:58.444Z,20.39
2018-05-07T00:33:58.335Z,20.38
2018-05-07T00:34:58.421Z,20.38
2018-05-07T00:35:58.540Z,20.37
2018-05-07T00:36:58.575Z,20.37
2018-05-07T00:37:58.458Z,20.38
2018-05-07T00:38:58.336Z,20.38
2018-05-07T00:39:58.582Z,20.37
2018-05-07T00:40:58.550Z,20.38
2018-05-07T00:41:58.490Z,20.37
2018-05-07T00:42:58.499Z,20.37
2018-05-07T00:43:58.478Z,20.37
2018-05-07T00:44:58.342Z,20.37
2018-05-07T00:45:58.436Z,20.37
2018-05-07T00:46:58.466Z,20.37
2018-05-07T00:47:58.461Z,20.37
2018-05-07T00:48:58.235Z,20.37
2018-05-07T00:49:58.473Z,20.36
2018-05-07T00:50:58.441Z,20.37
2018-05-07T00:51:58.448Z,20.36
2018-05-07T00:52:58.340Z,20.37
2018-05-07T00:53:58.353Z,20.36
2018-05-07T00:54:58.457Z,20.36
2018-05-07T00:55:58.365Z,20.37
2018-05-07T00:56:58.299Z,20.36
2018-05-07T00:57:58.401Z,20.36
2018-05-07T00:58:58.322Z,20.37
2018-05-07T00:59:58.327Z,20.36
2018-05-07T01:00:58.530Z,20.36
2018-05-07T01:01:58.347Z,20.36
2018-05-07T01:02:58.299Z,20.36
2018-05-07T01:03:58.277Z,20.35
2018-05-07T01:04:58.701Z,20.36
2018-05-07T01:05:58.468Z,20.35
2018-05-07T01:06:58.507Z,20.36
2018-05-07T01:07:58.404Z,20.35
2018-05-07T01:08:58.388Z,20.36
2018-05-07T01:09:58.374Z,20.35
2018-05-07T01:10:58.438Z,20.35
2018-05-07T01:11:58.434Z,20.35
2018-05-07T01:12:58.520Z,20.35
2018-05-07T01:13:58.356Z,20.35
2018-05-07T01:14:58.471Z,20.35
2018-05-07T01:15:58.488Z,20.35
2018-05-07T01:16:58.549Z,20.35
2018-05-07T01:17:58.336Z,20.35
2018-05-07T01:18:58.460Z,20.35
2018-05-07T01:19:58.443Z,20.35
2018-05-07T01:20:58.272Z,20.35
2018-05-07T01:21:58.361Z,20.35
2018-05-07T01:22:58.358Z,20.36
2018-05-07T01:23:58.350Z,20.35
2018-05-07T01:24:58.423Z,20.35
2018-05-07T01:25:58.415Z,20.36
2018-05-07T01:26:58.461Z,20.35
2018-05-07T01:27:58.418Z,20.35
2018-05-07T01:28:58.582Z,20.35
2018-05-07T01:29:58.418Z,20.35
2018-05-07T01:30:58.448Z,20.35
2018-05-07T01:31:58.321Z,20.35
2018-05-07T01:32:58.311Z,20.35
2018-05-07T01:33:58.419Z,20.35
2018-05-07T01:34:58.454Z,20.35
2018-05-07T01:35:58.294Z,20.35
2018-05-07T01:36:58.308Z,20.34
2018-05-07T01:37:58.436Z,20.34
2018-05-07T01:39:08.329Z,20.35
2018-05-07T01:39:58.320Z,20.34
2018-05-07T01:40:58.475Z,20.35
2018-05-07T01:41:58.396Z,20.35
2018-05-07T01:42:58.429Z,20.34
2018-05-07T01:43:58.479Z,20.35
2018-05-07T01:44:58.540Z,20.34
2018-05-07T01:45:58.460Z,20.34
2018-05-07T01:46:58.487Z,20.35
2018-05-07T01:47:58.717Z,20.34
2018-05-07T01:48:58.462Z,20.34
2018-05-07T01:49:58.549Z,20.34
2018-05-07T01:50:58.412Z,20.34
2018-05-07T01:51:58.231Z,20.33
2018-05-07T01:52:58.433Z,20.34
2018-05-07T01:53:58.504Z,20.34
2018-05-07T01:54:58.422Z,20.33
2018-05-07T01:55:58.336Z,20.34
2018-05-07T01:56:58.333Z,20.34
2018-05-07T01:57:58.367Z,20.33
2018-05-07T01:58:58.486Z,20.34
2018-05-07T01:59:58.391Z,20.33
2018-05-07T02:00:58.423Z,20.33
2018-05-07T02:01:58.420Z,20.33
2018-05-07T02:02:58.341Z,20.33
2018-05-07T02:03:58.428Z,20.32
2018-05-07T02:04:58.289Z,20.32
2018-05-07T02:05:58.269Z,20.32
2018-05-07T02:06:58.431Z,20.32
2018-05-07T02:07:58.332Z,20.33
2018-05-07T02:08:58.506Z,20.32
2018-05-07T02:09:58.298Z,20.31
2018-05-07T02:10:58.378Z,20.31
2018-05-07T02:11:58.543Z,20.32
2018-05-07T02:12:58.327Z,20.32
2018-05-07T02:13:58.424Z,20.32
2018-05-07T02:14:58.326Z,20.31
2018-05-07T02:15:58.421Z,20.31
2018-05-07T02:16:58.250Z,20.32
2018-05-07T02:17:58.438Z,20.32
2018-05-07T02:18:58.593Z,20.32
2018-05-07T02:19:58.391Z,20.31
2018-05-07T02:20:58.340Z,20.32
2018-05-07T02:21:58.481Z,20.31
2018-05-07T02:22:58.413Z,20.31
2018-05-07T02:23:58.377Z,20.31
2018-05-07T02:24:58.374Z,20.31
2018-05-07T02:25:58.458Z,20.32
2018-05-07T02:26:58.406Z,20.31
2018-05-07T02:27:58.278Z,20.31
2018-05-07T02:28:58.487Z,20.31
2018-05-07T02:29:58.261Z,20.31
2018-05-07T02:30:58.420Z,20.3
2018-05-07T02:31:58.437Z,20.3
2018-05-07T02:32:58.441Z,20.3
2018-05-07T02:33:58.306Z,20.3
2018-05-07T02:34:58.347Z,20.3
2018-05-07T02:35:58.405Z,20.3
2018-05-07T02:36:58.479Z,20.3
2018-05-07T02:37:58.349Z,20.3
2018-05-07T02:38:58.858Z,20.31
2018-05-07T02:39:58.402Z,20.3
2018-05-07T02:40:58.303Z,20.3
2018-05-07T02:41:58.361Z,20.3
2018-05-07T02:42:58.361Z,20.3
2018-05-07T02:43:58.329Z,20.3
2018-05-07T02:44:58.334Z,20.3
2018-05-07T02:45:58.334Z,20.3
2018-05-07T02:46:58.486Z,20.3
2018-05-07T02:47:58.573Z,20.3
2018-05-07T02:48:58.394Z,20.3
2018-05-07T02:49:58.374Z,20.3
2018-05-07T02:50:58.359Z,20.3
2018-05-07T02:51:58.511Z,20.3
2018-05-07T02:52:58.310Z,20.3
2018-05-07T02:53:58.229Z,20.3
2018-05-07T02:54:58.319Z,20.3
2018-05-07T02:55:58.235Z,20.3
2018-05-07T02:56:58.305Z,20.3
2018-05-07T02:57:58.422Z,20.29
2018-05-07T02:58:58.476Z,20.3
2018-05-07T02:59:58.386Z,20.3
2018-05-07T03:00:58.303Z,20.3
2018-05-07T03:01:58.360Z,20.3
2018-05-07T03:02:58.269Z,20.3
2018-05-07T03:03:58.256Z,20.3
2018-05-07T03:04:58.371Z,20.3
2018-05-07T03:05:58.264Z,20.3
2018-05-07T03:06:58.273Z,20.3
2018-05-07T03:07:58.407Z,20.3
2018-05-07T03:08:58.370Z,20.3
2018-05-07T03:09:58.307Z,20.29
2018-05-07T03:10:58.307Z,20.29
2018-05-07T03:11:58.340Z,20.3
2018-05-07T03:12:58.351Z,20.3
2018-05-07T03:13:58.276Z,20.3
2018-05-07T03:14:58.343Z,20.3
2018-05-07T03:15:58.285Z,20.29
2018-05-07T03:16:58.570Z,20.29
2018-05-07T03:17:58.376Z,20.3
2018-05-07T03:18:58.387Z,20.29
2018-05-07T03:19:58.404Z,20.3
2018-05-07T03:20:58.443Z,20.3
2018-05-07T03:21:58.345Z,20.29
2018-05-07T03:22:58.581Z,20.3
2018-05-07T03:23:58.398Z,20.3
2018-05-07T03:24:58.378Z,20.29
2018-05-07T03:25:58.258Z,20.29
2018-05-07T03:26:58.325Z,20.3
2018-05-07T03:27:58.268Z,20.29
2018-05-07T03:28:58.309Z,20.29
2018-05-07T03:29:58.249Z,20.29
2018-05-07T03:30:58.299Z,20.3
2018-05-07T03:31:58.493Z,20.29
2018-05-07T03:32:58.537Z,20.29
2018-05-07T03:33:58.308Z,20.29
2018-05-07T03:34:58.403Z,20.3
2018-05-07T03:35:58.294Z,20.29
2018-05-07T03:36:58.427Z,20.29
2018-05-07T03:37:58.366Z,20.29
2018-05-07T03:38:58.429Z,20.29
2018-05-07T03:40:58.307Z,20.29
2018-05-07T03:41:58.331Z,20.29
2018-05-07T03:42:58.416Z,20.28
2018-05-07T03:43:58.355Z,20.26
2018-05-07T03:44:58.371Z,20.28
2018-05-07T06:01:42.280Z,20.3
2018-05-07T06:02:42.638Z,20.3
2018-05-07T06:03:42.886Z,20.3
2018-05-07T06:04:42.543Z,20.3
2018-05-07T06:05:42.177Z,20.3
2018-05-07T06:06:42.292Z,20.3
2018-05-07T06:07:42.361Z,20.3
2018-05-07T06:08:42.341Z,20.3
2018-05-07T06:09:42.347Z,20.3
2018-05-07T06:10:42.273Z,20.3
2018-05-07T06:11:42.408Z,20.3
2018-05-07T06:12:42.137Z,20.3
2018-05-07T06:13:42.253Z,20.3
2018-05-07T06:14:43.202Z,20.3
2018-05-07T06:15:42.213Z,20.3
2018-05-07T06:16:42.525Z,20.3
2018-05-07T06:17:42.096Z,20.31
2018-05-07T06:18:42.239Z,20.3
2018-05-07T06:19:42.445Z,20.3
2018-05-07T06:20:42.262Z,20.3
2018-05-07T06:21:42.241Z,20.3
2018-05-07T06:22:42.221Z,20.31
2018-05-07T06:23:42.106Z,20.3
2018-05-07T06:24:42.229Z,20.31
2018-05-07T06:25:42.252Z,20.3
2018-05-07T06:26:42.259Z,20.3
2018-05-07T06:27:42.110Z,20.31
2018-05-07T06:28:42.376Z,20.3
2018-05-07T06:29:42.130Z,20.31
2018-05-07T06:30:42.172Z,20.31
2018-05-07T06:31:42.360Z,20.31
2018-05-07T06:32:42.256Z,20.3
2018-05-07T06:33:42.351Z,20.31
2018-05-07T06:34:42.139Z,20.31
2018-05-07T06:35:42.347Z,20.3
2018-05-07T06:36:42.267Z,20.31
2018-05-07T06:37:42.194Z,20.31
2018-05-07T06:38:42.430Z,20.31
2018-05-07T06:39:42.368Z,20.3
2018-05-07T06:40:42.250Z,20.3
2018-05-07T06:41:42.299Z,20.3
2018-05-07T06:42:42.337Z,20.3
2018-05-07T06:43:42.469Z,20.3
2018-05-07T06:44:42.159Z,20.3
2018-05-07T06:45:42.369Z,20.31
2018-05-07T06:46:42.405Z,20.31
2018-05-07T06:47:42.275Z,20.31
2018-05-07T06:48:42.389Z,20.32
2018-05-07T06:49:42.264Z,20.31
2018-05-07T06:50:42.193Z,20.31
2018-05-07T06:51:42.346Z,20.32
2018-05-07T06:52:42.471Z,20.31
2018-05-07T06:53:43.505Z,20.32
2018-05-07T06:54:42.339Z,20.32
2018-05-07T06:55:42.275Z,20.31
2018-05-07T06:56:42.204Z,20.3
2018-05-07T06:57:42.253Z,20.32
2018-05-07T06:58:42.321Z,20.32
2018-05-07T06:59:42.267Z,20.31
2018-05-07T07:00:42.196Z,20.31
2018-05-07T07:01:42.294Z,20.31
2018-05-07T07:02:43.718Z,20.31
2018-05-07T07:03:42.351Z,20.32
2018-05-07T07:04:42.281Z,20.31
2018-05-07T07:05:42.334Z,20.3
2018-05-07T07:06:42.311Z,20.31
2018-05-07T07:07:42.088Z,20.31
2018-05-07T07:08:42.812Z,20.32
2018-05-07T07:09:42.275Z,20.32
2018-05-07T07:10:42.255Z,20.31
2018-05-07T07:11:42.187Z,20.3
2018-05-07T07:12:42.239Z,20.31
2018-05-07T07:13:42.266Z,20.31
2018-05-07T07:14:42.235Z,20.31
2018-05-07T07:15:42.212Z,20.31
2018-05-07T07:16:42.290Z,20.31
2018-05-07T07:17:42.329Z,20.3
2018-05-07T07:18:42.070Z,20.31
2018-05-07T07:19:42.120Z,20.31
2018-05-07T07:20:42.185Z,20.31
2018-05-07T07:21:42.451Z,20.31
2018-05-07T07:22:42.167Z,20.31
2018-05-07T07:23:42.269Z,20.32
2018-05-07T07:24:42.325Z,20.32
2018-05-07T07:25:42.132Z,20.31
2018-05-07T07:26:42.363Z,20.3
2018-05-07T07:27:42.235Z,20.31
2018-05-07T07:28:42.137Z,20.31
2018-05-07T07:29:52.115Z,20.32
2018-05-07T07:30:42.115Z,20.31
2018-05-07T07:31:42.310Z,20.31
2018-05-07T07:32:42.273Z,20.31
2018-05-07T07:33:42.830Z,20.31
2018-05-07T07:34:42.148Z,20.31
2018-05-07T07:35:42.100Z,20.31
2018-05-07T07:36:42.250Z,20.31
2018-05-07T07:37:42.262Z,20.31
2018-05-07T07:38:42.675Z,20.31
2018-05-07T07:39:42.500Z,20.31
2018-05-07T07:40:42.317Z,20.31
2018-05-07T07:41:42.338Z,20.3
2018-05-07T07:42:42.260Z,20.3
2018-05-07T07:43:42.248Z,20.31
2018-05-07T07:44:42.270Z,20.31
2018-05-07T07:45:42.170Z,20.31
2018-05-07T07:46:42.064Z,20.32
2018-05-07T07:47:42.478Z,20.31
2018-05-07T07:48:42.252Z,20.31
2018-05-07T07:49:42.357Z,20.31
2018-05-07T07:50:42.344Z,20.31
2018-05-07T07:51:42.450Z,20.31
2018-05-07T07:52:42.232Z,20.3
2018-05-07T07:53:42.697Z,20.3
2018-05-07T07:54:42.277Z,20.3
2018-05-07T07:55:42.116Z,20.3
2018-05-07T07:56:42.264Z,20.31
2018-05-07T07:57:42.053Z,20.31
2018-05-07T07:58:42.239Z,20.31
2018-05-07T07:59:42.213Z,20.3
2018-05-07T08:00:42.272Z,20.31
2018-05-07T08:01:42.910Z,20.31
2018-05-07T08:02:42.205Z,20.31
2018-05-07T08:03:42.237Z,20.31
2018-05-07T08:04:42.319Z,20.31
2018-05-07T08:05:42.165Z,20.3
2018-05-07T08:06:42.257Z,20.31
2018-05-07T08:07:42.384Z,20.31
2018-05-07T08:08:42.122Z,20.3
2018-05-07T08:09:42.173Z,20.3
2018-05-07T08:10:42.227Z,20.3
2018-05-07T08:11:42.299Z,20.31
2018-05-07T08:12:42.267Z,20.31
2018-05-07T08:13:42.302Z,20.3
2018-05-07T08:14:42.281Z,20.3
2018-05-07T08:15:42.209Z,20.3
2018-05-07T08:16:42.099Z,20.31
2018-05-07T08:17:42.183Z,20.31
2018-05-07T08:18:42.252Z,20.31
2018-05-07T08:19:42.122Z,20.3
2018-05-07T08:20:42.141Z,20.31
2018-05-07T08:21:42.148Z,20.31
2018-05-07T08:22:42.254Z,20.31
2018-05-07T08:23:42.169Z,20.31
2018-05-07T08:24:42.521Z,20.3
2018-05-07T08:25:42.295Z,20.3
2018-05-07T08:26:42.190Z,20.3
2018-05-07T08:27:42.325Z,20.3
2018-05-07T08:28:42.409Z,20.3
2018-05-07T08:29:42.172Z,20.3
2018-05-07T08:30:42.070Z,20.3
2018-05-07T08:31:42.125Z,20.3
2018-05-07T08:32:42.235Z,20.31
2018-05-07T08:33:42.258Z,20.31
2018-05-07T08:34:42.201Z,20.31
2018-05-07T08:35:42.328Z,20.3
2018-05-07T08:36:42.840Z,20.3
2018-05-07T08:37:42.175Z,20.3
2018-05-07T08:38:42.139Z,20.3
2018-05-07T08:39:42.309Z,20.31
2018-05-07T08:40:42.240Z,20.3
2018-05-07T08:41:42.132Z,20.32
2018-05-07T08:42:42.146Z,20.31
2018-05-07T08:43:42.298Z,20.31
2018-05-07T08:44:42.201Z,20.3
2018-05-07T08:45:42.183Z,20.3
2018-05-07T08:46:42.209Z,20.3
2018-05-07T08:47:42.225Z,20.31
2018-05-07T08:48:42.209Z,20.31
2018-05-07T08:49:42.100Z,20.31
2018-05-07T08:50:42.062Z,20.3
2018-05-07T08:51:42.375Z,20.3
2018-05-07T08:52:42.479Z,20.3
2018-05-07T08:53:42.301Z,20.3
2018-05-07T08:54:42.163Z,20.3
2018-05-07T08:55:42.280Z,20.3
2018-05-07T08:56:42.106Z,20.3
2018-05-07T08:57:42.403Z,20.3
2018-05-07T08:58:42.249Z,20.3
2018-05-07T08:59:42.224Z,20.3
2018-05-07T09:00:42.175Z,20.3
2018-05-07T09:01:42.071Z,20.3
2018-05-07T09:02:42.276Z,20.3
2018-05-07T09:03:42.070Z,20.3
2018-05-07T09:04:42.064Z,20.3
2018-05-07T09:05:42.071Z,20.3
2018-05-07T09:06:42.069Z,20.3
2018-05-07T09:07:42.291Z,20.3
2018-05-07T09:08:42.312Z,20.3
2018-05-07T09:09:42.169Z,20.3
2018-05-07T09:10:42.301Z,20.3
2018-05-07T09:11:42.272Z,20.3
2018-05-07T09:12:42.339Z,20.3
2018-05-07T09:13:43.003Z,20.3
2018-05-07T09:14:42.084Z,20.3
2018-05-07T09:15:42.255Z,20.3
2018-05-07T09:16:42.278Z,20.3
2018-05-07T09:17:42.133Z,20.3
2018-05-07T09:18:42.311Z,20.3
2018-05-07T09:19:42.241Z,20.3
2018-05-07T09:20:42.302Z,20.3
2018-05-07T09:21:42.149Z,20.3
2018-05-07T09:22:42.330Z,20.3
2018-05-07T09:23:42.304Z,20.29
2018-05-07T09:24:42.798Z,20.3
2018-05-07T09:25:52.116Z,20.3
2018-05-07T09:26:42.257Z,20.3
2018-05-07T09:27:42.079Z,20.3
2018-05-07T09:28:42.334Z,20.3
2018-05-07T09:29:42.098Z,20.3
2018-05-07T09:30:42.025Z,20.3
2018-05-07T09:31:42.091Z,20.3
2018-05-07T09:32:42.077Z,20.29
2018-05-07T09:33:42.139Z,20.3
2018-05-07T09:34:42.192Z,20.29
2018-05-07T09:35:42.233Z,20.3
2018-05-07T09:36:42.162Z,20.3
2018-05-07T09:37:42.134Z,20.3
2018-05-07T09:38:42.316Z,20.3
2018-05-07T09:39:42.154Z,20.3
2018-05-07T09:40:42.232Z,20.3
2018-05-07T09:41:42.076Z,20.29
2018-05-07T09:42:42.047Z,20.3
2018-05-07T09:43:42.270Z,20.3
2018-05-07T09:44:42.356Z,20.29
2018-05-07T09:45:42.226Z,20.3
2018-05-07T09:46:42.101Z,20.29
2018-05-07T09:47:42.291Z,20.3
2018-05-07T09:48:42.242Z,20.3
2018-05-07T09:49:42.292Z,20.29
2018-05-07T09:50:42.145Z,20.29
2018-05-07T09:51:42.109Z,20.29
2018-05-07T09:52:42.322Z,20.3
2018-05-07T09:53:42.183Z,20.29
2018-05-07T09:54:42.089Z,20.29
2018-05-07T09:55:42.503Z,20.3
2018-05-07T09:56:42.402Z,20.29
2018-05-07T09:57:42.165Z,20.3
2018-05-07T09:58:42.111Z,20.29
2018-05-07T09:59:42.227Z,20.29
2018-05-07T10:00:42.083Z,20.29
2018-05-07T10:01:42.168Z,20.29
2018-05-07T10:02:42.178Z,20.29
2018-05-07T10:03:42.166Z,20.3
2018-05-07T10:04:42.116Z,20.29
2018-05-07T10:05:42.415Z,20.29
2018-05-07T10:06:42.162Z,20.3
2018-05-07T10:07:42.060Z,20.29
2018-05-07T10:08:42.161Z,20.29
2018-05-07T10:09:42.196Z,20.29
2018-05-07T10:10:42.310Z,20.29
2018-05-07T10:11:42.165Z,20.3
2018-05-07T10:12:42.063Z,20.29
2018-05-07T10:13:42.139Z,20.29
2018-05-07T10:14:42.107Z,20.28
2018-05-07T10:15:41.994Z,20.29
2018-05-07T10:16:42.246Z,20.29
2018-05-07T10:17:42.308Z,20.29
2018-05-07T10:18:42.106Z,20.29
2018-05-07T10:19:42.328Z,20.29
2018-05-07T10:20:42.198Z,20.3
2018-05-07T10:21:42.126Z,20.29
2018-05-07T10:22:42.126Z,20.29
2018-05-07T10:23:42.248Z,20.29
2018-05-07T10:24:42.267Z,20.29
2018-05-07T10:25:42.086Z,20.29
2018-05-07T10:26:42.013Z,20.29
2018-05-07T10:27:42.090Z,20.29
2018-05-07T10:28:42.142Z,20.29
2018-05-07T10:29:42.397Z,20.3
2018-05-07T10:30:42.232Z,20.29
2018-05-07T10:31:42.096Z,20.29
2018-05-07T10:32:42.237Z,20.29
2018-05-07T10:33:42.162Z,20.29
2018-05-07T10:34:42.090Z,20.29
2018-05-07T10:35:42.262Z,20.29
2018-05-07T10:36:42.240Z,20.29
2018-05-07T10:37:42.055Z,20.29
2018-05-07T10:38:42.123Z,20.29
2018-05-07T10:39:42.225Z,20.29
2018-05-07T10:40:42.263Z,20.29
2018-05-07T10:41:42.079Z,20.28
2018-05-07T10:42:42.319Z,20.29
2018-05-07T10:43:42.216Z,20.29
2018-05-07T10:44:42.234Z,20.28
2018-05-07T10:45:42.148Z,20.29
2018-05-07T10:46:42.173Z,20.29
2018-05-07T10:47:42.136Z,20.29
2018-05-07T10:48:42.143Z,20.29
2018-05-07T10:49:42.054Z,20.29
2018-05-07T10:50:42.178Z,20.29
2018-05-07T10:51:42.112Z,20.29
2018-05-07T10:52:42.131Z,20.29
2018-05-07T10:53:42.090Z,20.3
2018-05-07T10:54:42.119Z,20.29
2018-05-07T10:55:42.004Z,20.29
2018-05-07T10:56:42.307Z,20.28
2018-05-07T10:57:42.477Z,20.29
2018-05-07T10:58:42.057Z,20.29
2018-05-07T10:59:42.066Z,20.29
2018-05-07T11:00:42.189Z,20.29
2018-05-07T11:01:42.926Z,20.29
2018-05-07T11:02:42.149Z,20.29
2018-05-07T11:03:41.986Z,20.29
2018-05-07T11:04:42.139Z,20.29
2018-05-07T11:05:42.127Z,20.28
2018-05-07T11:06:41.992Z,20.29
2018-05-07T11:07:42.331Z,20.28
2018-05-07T11:08:42.283Z,20.28
2018-05-07T11:09:42.220Z,20.28
2018-05-07T11:11:13.060Z,20.29
2018-05-07T11:11:42.208Z,20.28
2018-05-07T11:12:42.124Z,20.28
2018-05-07T11:13:41.993Z,20.29
2018-05-07T11:14:42.158Z,20.29
2018-05-07T11:15:42.035Z,20.29
2018-05-07T11:16:42.090Z,20.28
2018-05-07T11:17:42.195Z,20.29
2018-05-07T11:18:42.206Z,20.29
2018-05-07T11:19:42.554Z,20.29
2018-05-07T11:20:42.090Z,20.29
2018-05-07T11:21:42.115Z,20.28
2018-05-07T11:22:42.114Z,20.29
2018-05-07T11:23:42.266Z,20.2
2018-05-07T11:24:42.219Z,20.22
2018-05-07T11:25:42.268Z,20.24
2018-05-07T11:26:42.091Z,20.29
2018-05-07T11:27:42.407Z,20.29
2018-05-07T11:28:42.282Z,20.29
2018-05-07T11:29:42.160Z,20.3
2018-05-07T11:30:42.240Z,20.3
2018-05-07T11:31:42.333Z,20.3
2018-05-07T11:32:42.204Z,20.3
2018-05-07T11:33:42.103Z,20.3
2018-05-07T11:34:42.262Z,20.3
2018-05-07T11:35:42.183Z,20.29
2018-05-07T11:36:42.091Z,20.3
2018-05-07T11:37:42.320Z,20.3
2018-05-07T11:38:42.090Z,20.3
2018-05-07T11:39:42.170Z,20.3
2018-05-07T11:40:42.103Z,20.3
2018-05-07T11:41:42.093Z,20.3
2018-05-07T11:42:42.213Z,20.3
2018-05-07T11:43:42.144Z,20.3
2018-05-07T11:44:42.066Z,20.16
2018-05-07T11:45:42.091Z,20.24
2018-05-07T11:46:42.131Z,20.28
2018-05-07T11:47:42.624Z,20.32
2018-05-07T11:48:42.061Z,20.32
2018-05-07T11:49:41.982Z,20.35
2018-05-07T11:50:42.170Z,20.39
2018-05-07T11:51:42.085Z,20.41
2018-05-07T11:52:42.277Z,20.41
2018-05-07T11:53:42.117Z,20.47
2018-05-07T11:54:42.194Z,20.47
2018-05-07T11:55:42.062Z,20.48
2018-05-07T11:56:42.082Z,20.5
2018-05-07T11:57:42.201Z,20.5
2018-05-07T11:58:42.183Z,20.5
2018-05-07T11:59:42.109Z,20.55
2018-05-07T12:00:42.150Z,20.53
2018-05-07T12:01:42.164Z,20.53
2018-05-07T12:02:42.501Z,20.55
2018-05-07T12:03:42.141Z,20.55
2018-05-07T12:04:42.075Z,20.54
2018-05-07T12:05:42.257Z,20.57
2018-05-07T12:06:42.072Z,20.56
2018-05-07T12:07:42.038Z,20.56
2018-05-07T12:08:42.188Z,20.58
2018-05-07T12:09:42.081Z,20.58
2018-05-07T12:10:42.098Z,20.58
2018-05-07T12:11:42.220Z,20.63
2018-05-07T12:12:42.057Z,20.59
2018-05-07T12:13:42.124Z,20.59
2018-05-07T12:14:42.040Z,20.57
2018-05-07T12:15:42.621Z,20.53
2018-05-07T12:16:42.157Z,20.53
2018-05-07T12:17:42.092Z,20.55
2018-05-07T12:18:42.101Z,20.53
2018-05-07T12:19:42.140Z,20.51
2018-05-07T12:20:42.122Z,20.5
2018-05-07T12:21:42.109Z,20.5
2018-05-07T12:22:42.178Z,20.48
2018-05-07T12:23:42.131Z,20.48
2018-05-07T12:24:42.273Z,20.47
2018-05-07T12:25:42.041Z,20.47
2018-05-07T12:26:42.130Z,20.47
2018-05-07T12:27:42.194Z,20.47
2018-05-07T12:28:42.104Z,20.46
2018-05-07T12:29:42.152Z,20.45
2018-05-07T12:30:42.206Z,20.46
2018-05-07T12:31:43.487Z,20.45
2018-05-07T12:32:41.952Z,20.44
2018-05-07T12:33:42.092Z,20.44
2018-05-07T12:34:42.072Z,20.44
2018-05-07T12:35:42.331Z,20.44
2018-05-07T12:36:42.008Z,20.43
2018-05-07T12:37:42.566Z,20.43
2018-05-07T12:38:42.103Z,20.43
2018-05-07T12:39:42.062Z,20.43
2018-05-07T12:40:42.122Z,20.42
2018-05-07T12:41:42.233Z,20.42
2018-05-07T12:42:42.187Z,20.42
2018-05-07T12:43:42.144Z,20.42
2018-05-07T12:44:42.092Z,20.41
2018-05-07T12:45:42.096Z,20.41
2018-05-07T12:46:42.570Z,20.41
2018-05-07T12:47:42.024Z,20.41
2018-05-07T12:48:42.192Z,20.41
2018-05-07T12:49:42.122Z,20.41
2018-05-07T12:50:42.072Z,20.41
2018-05-07T12:51:42.145Z,20.41
2018-05-07T12:52:42.600Z,20.41
2018-05-07T12:53:42.227Z,20.4
2018-05-07T12:54:42.124Z,20.41
2018-05-07T12:55:42.011Z,20.41
2018-05-07T12:56:42.070Z,20.41
2018-05-07T12:57:42.098Z,20.4
2018-05-07T12:58:42.021Z,20.41
2018-05-07T12:59:41.988Z,20.41
2018-05-07T13:00:42.142Z,20.41
2018-05-07T13:01:42.091Z,20.41
2018-05-07T13:02:42.078Z,20.41
2018-05-07T13:03:42.095Z,20.41
2018-05-07T13:04:42.208Z,20.41
2018-05-07T13:05:42.177Z,20.4
2018-05-07T13:06:41.988Z,20.4
2018-05-07T13:07:42.165Z,20.4
2018-05-07T13:08:42.185Z,20.41
2018-05-07T13:09:41.945Z,20.4
2018-05-07T13:10:42.216Z,20.4
2018-05-07T13:11:42.125Z,20.39
2018-05-07T13:12:42.203Z,20.4
2018-05-07T13:13:42.111Z,20.4
2018-05-07T13:14:42.148Z,20.39
2018-05-07T13:15:42.281Z,20.4
2018-05-07T13:16:42.079Z,20.4
2018-05-07T13:17:42.161Z,20.4
2018-05-07T13:18:42.303Z,20.4
2018-05-07T13:19:42.012Z,20.4
2018-05-07T13:20:42.242Z,20.4
2018-05-07T13:21:42.117Z,20.4
2018-05-07T13:22:42.115Z,20.4
2018-05-07T13:23:41.985Z,20.4
2018-05-07T13:24:42.182Z,20.4
2018-05-07T13:25:42.117Z,20.39
2018-05-07T13:26:42.105Z,20.39
2018-05-07T13:27:42.002Z,20.39
2018-05-07T13:28:42.121Z,20.39
2018-05-07T13:29:42.018Z,20.39
2018-05-07T13:30:42.175Z,20.4
2018-05-07T13:31:42.188Z,20.4
2018-05-07T13:32:42.034Z,20.4
2018-05-07T13:33:42.074Z,20.41
2018-05-07T13:34:42.151Z,20.41
2018-05-07T13:35:42.080Z,20.41
2018-05-07T13:36:42.599Z,20.41
2018-05-07T13:37:42.098Z,20.4
2018-05-07T13:38:42.061Z,20.39
2018-05-07T13:39:42.253Z,20.39
2018-05-07T13:40:42.553Z,20.39
2018-05-07T13:41:42.091Z,20.4
2018-05-07T13:42:42.135Z,20.39
2018-05-07T13:43:42.352Z,20.39
2018-05-07T13:44:42.066Z,20.39
2018-05-07T13:45:42.361Z,20.39
2018-05-07T13:46:42.092Z,20.39
2018-05-07T13:47:42.244Z,20.39
2018-05-07T13:48:42.067Z,20.39
2018-05-07T13:49:41.969Z,20.39
2018-05-07T13:50:42.293Z,20.38
2018-05-07T13:51:42.080Z,20.38
2018-05-07T13:52:42.284Z,20.38
2018-05-07T13:53:41.999Z,20.39
2018-05-07T13:54:42.265Z,20.39
2018-05-07T13:55:42.255Z,20.38
2018-05-07T13:56:42.259Z,20.39
2018-05-07T13:57:42.179Z,20.39
2018-05-07T13:58:42.221Z,20.38
2018-05-07T13:59:42.154Z,20.39
2018-05-07T14:00:42.254Z,20.38
2018-05-07T14:01:42.239Z,20.38
2018-05-07T14:02:42.652Z,20.38
2018-05-07T14:03:42.130Z,20.38
2018-05-07T14:04:42.095Z,20.38
2018-05-07T14:05:42.157Z,20.38
2018-05-07T14:06:42.264Z,20.38
2018-05-07T14:07:42.199Z,20.38
2018-05-07T14:08:42.077Z,20.38
2018-05-07T14:09:42.138Z,20.38
2018-05-07T14:10:42.120Z,20.37
2018-05-07T14:11:42.217Z,20.37
2018-05-07T14:12:42.220Z,20.37
2018-05-07T14:13:42.040Z,20.37
2018-05-07T14:14:42.290Z,20.36
2018-05-07T14:15:52.137Z,20.37
2018-05-07T14:16:42.601Z,20.38
2018-05-07T14:17:42.273Z,20.37
2018-05-07T14:18:42.133Z,20.38
2018-05-07T14:19:42.153Z,20.37
2018-05-07T14:20:42.084Z,20.37
2018-05-07T14:21:42.078Z,20.37
2018-05-07T14:22:42.207Z,20.37
2018-05-07T14:23:41.865Z,20.37
2018-05-07T14:24:42.187Z,20.37
2018-05-07T14:25:42.514Z,20.37
2018-05-07T14:26:42.070Z,20.37
2018-05-07T14:27:42.323Z,20.37
2018-05-07T14:28:42.113Z,20.37
2018-05-07T14:29:42.330Z,20.37
2018-05-07T14:30:42.034Z,20.37
2018-05-07T14:31:42.212Z,20.37
2018-05-07T14:32:42.058Z,20.36
2018-05-07T14:33:42.127Z,20.37
2018-05-07T14:34:42.394Z,20.37
2018-05-07T14:35:42.133Z,20.36
2018-05-07T14:36:42.009Z,20.37
2018-05-07T14:37:42.179Z,20.37
2018-05-07T14:38:42.526Z,20.36
2018-05-07T14:39:41.987Z,20.37
2018-05-07T14:40:42.026Z,20.36
2018-05-07T14:41:42.058Z,20.36
2018-05-07T14:42:42.126Z,20.36
2018-05-07T14:43:41.993Z,20.36
2018-05-07T14:44:42.013Z,20.37
2018-05-07T14:45:42.017Z,20.37
2018-05-07T14:46:42.183Z,20.36
2018-05-07T14:47:42.184Z,20.36
2018-05-07T14:48:42.125Z,20.36
2018-05-07T14:49:41.995Z,20.36
2018-05-07T14:50:42.279Z,20.37
2018-05-07T14:51:42.205Z,20.36
2018-05-07T14:52:42.252Z,20.37
2018-05-07T14:53:42.021Z,20.37
2018-05-07T14:54:42.070Z,20.37
2018-05-07T14:55:42.395Z,20.37
2018-05-07T14:56:42.176Z,20.36
2018-05-07T14:57:42.111Z,20.37
2018-05-07T14:58:42.734Z,20.36
2018-05-07T14:59:42.018Z,20.36
2018-05-07T15:00:41.928Z,20.37
2018-05-07T15:01:42.162Z,20.37
2018-05-07T15:02:42.250Z,20.37
2018-05-07T15:03:42.003Z,20.37
2018-05-07T15:04:42.104Z,20.36
2018-05-07T15:05:41.933Z,20.36
2018-05-07T15:06:42.081Z,20.37
2018-05-07T15:07:42.066Z,20.36
2018-05-07T15:08:42.034Z,20.37
2018-05-07T15:09:42.158Z,20.36
2018-05-07T15:10:42.154Z,20.36
2018-05-07T15:11:42.043Z,20.36
2018-05-07T15:12:41.993Z,20.37
2018-05-07T15:13:42.251Z,20.36
2018-05-07T15:14:42.133Z,20.36
2018-05-07T15:15:42.895Z,20.36
2018-05-07T15:16:41.973Z,20.36
2018-05-07T15:17:42.019Z,20.36